Time;durP1;ratioP1;P1;durP2;ratioP2;P2;SDS_P1;SDS_P2;PMS_P1;PMS_P2;Temp;Humidity;BMP_temperature;BMP_pressure;BME280_temperature;BME280_humidity;BME280_pressure;Samples;Min_cycle;Max_cycle;Signal;HPM_P1;HPM_P2
2022/12/20 00:01:08;;;;;;;9.70;6.80;;;;;;;;;;5068931;28;20127;-75
2022/12/20 00:03:34;;;;;;;10.02;7.95;;;;;;;;;;5067788;28;20055;-75
2022/12/20 00:06:00;;;;;;;12.90;6.60;;;;;;;;;;5067306;28;20060;-76
2022/12/20 00:08:26;;;;;;;9.65;6.88;;;;;;;;;;5069551;28;20055;-75
2022/12/20 00:10:52;;;;;;;9.65;6.47;;;;;;;;;;5069356;28;20033;-75
2022/12/20 00:13:18;;;;;;;9.40;6.90;;;;;;;;;;5061343;28;20261;-75
2022/12/20 00:15:44;;;;;;;8.90;7.55;;;;;;;;;;5068351;28;20048;-75
2022/12/20 00:18:10;;;;;;;9.35;6.65;;;;;;;;;;5066604;28;20063;-75
2022/12/20 00:20:36;;;;;;;8.60;6.63;;;;;;;;;;5068767;28;20088;-75
2022/12/20 00:23:02;;;;;;;8.52;7.28;;;;;;;;;;5070343;28;20049;-75
2022/12/20 00:25:28;;;;;;;7.93;6.78;;;;;;;;;;5071919;28;20040;-76
2022/12/20 00:27:55;;;;;;;7.38;6.20;;;;;;;;;;5069389;28;20051;-75
2022/12/20 00:30:21;;;;;;;12.10;6.72;;;;;;;;;;5075829;28;20088;-75
2022/12/20 00:32:47;;;;;;;10.10;7.30;;;;;;;;;;5068167;28;20040;-75
2022/12/20 00:35:13;;;;;;;9.50;7.10;;;;;;;;;;5069249;28;20068;-75
2022/12/20 00:37:39;;;;;;;10.02;6.65;;;;;;;;;;5071713;28;20438;-75
2022/12/20 00:40:05;;;;;;;9.45;6.53;;;;;;;;;;5068653;28;20064;-75
2022/12/20 00:42:32;;;;;;;8.95;6.28;;;;;;;;;;5068133;28;20190;-76
2022/12/20 00:44:58;;;;;;;8.65;6.22;;;;;;;;;;5070369;28;20439;-75
2022/12/20 00:47:24;;;;;;;9.93;6.55;;;;;;;;;;5067434;28;20044;-75
2022/12/20 00:49:50;;;;;;;7.47;6.07;;;;;;;;;;5068983;28;20094;-75
2022/12/20 00:52:16;;;;;;;7.75;6.50;;;;;;;;;;5068162;28;20036;-75
2022/12/20 00:54:42;;;;;;;9.48;6.88;;;;;;;;;;5070445;28;20060;-75
2022/12/20 00:57:08;;;;;;;9.85;7.50;;;;;;;;;;5063412;28;20094;-76
2022/12/20 00:59:34;;;;;;;7.43;6.63;;;;;;;;;;5069449;28;20044;-76
2022/12/20 01:02:00;;;;;;;7.78;6.28;;;;;;;;;;5065705;28;20057;-76
2022/12/20 01:04:26;;;;;;;7.85;6.70;;;;;;;;;;5065133;28;20706;-76
2022/12/20 01:06:52;;;;;;;11.10;6.82;;;;;;;;;;5066114;28;20037;-75
2022/12/20 01:09:18;;;;;;;11.00;7.28;;;;;;;;;;5065830;28;20041;-76
2022/12/20 01:11:44;;;;;;;9.15;6.70;;;;;;;;;;5067203;28;20399;-76
2022/12/20 01:14:12;;;;;;;10.07;6.80;;;;;;;;;;5067372;28;20052;-75
2022/12/20 01:16:40;;;;;;;10.20;6.82;;;;;;;;;;5068946;28;20131;-75
2022/12/20 01:19:07;;;;;;;8.93;6.88;;;;;;;;;;5069817;28;20033;-75
2022/12/20 01:21:33;;;;;;;8.07;6.70;;;;;;;;;;5068212;28;20044;-76
2022/12/20 01:23:59;;;;;;;8.05;6.65;;;;;;;;;;5069066;28;20127;-75
2022/12/20 01:26:27;;;;;;;9.35;6.93;;;;;;;;;;5068875;28;20056;-75
2022/12/20 01:28:54;;;;;;;10.70;6.70;;;;;;;;;;5068290;28;20388;-76
2022/12/20 01:31:21;;;;;;;11.38;7.00;;;;;;;;;;5067915;28;20032;-76
2022/12/20 01:33:48;;;;;;;8.90;6.75;;;;;;;;;;5061474;28;20515;-76
2022/12/20 01:36:16;;;;;;;8.77;6.53;;;;;;;;;;5067375;28;20086;-76
2022/12/20 01:38:42;;;;;;;8.43;5.88;;;;;;;;;;5069822;28;20488;-75
2022/12/20 01:41:08;;;;;;;11.02;6.60;;;;;;;;;;5069319;28;20072;-75
2022/12/20 01:44:03;;;;;;;9.70;6.60;;;;;;;;;;5067818;28;20044;-75
2022/12/20 01:46:34;;;;;;;8.60;6.72;;;;;;;;;;5054604;28;20099;-75
2022/12/20 01:49:10;;;;;;;11.30;7.07;;;;;;;;;;5066092;28;20049;-75
2022/12/20 01:51:40;;;;;;;8.02;6.57;;;;;;;;;;5070624;28;20036;-75
2022/12/20 01:54:15;;;;;;;9.13;6.93;;;;;;;;;;5069710;28;20040;-75
2022/12/20 01:56:43;;;;;;;7.22;6.00;;;;;;;;;;5069727;28;20078;-75
2022/12/20 01:59:10;;;;;;;9.85;6.60;;;;;;;;;;5066631;28;20128;-75
2022/12/20 02:01:36;;;;;;;7.80;6.30;;;;;;;;;;5064300;28;20384;-75
2022/12/20 02:04:02;;;;;;;9.55;6.55;;;;;;;;;;5066949;28;20047;-75
2022/12/20 02:06:28;;;;;;;8.88;6.80;;;;;;;;;;5067173;28;20045;-76
2022/12/20 02:08:56;;;;;;;11.52;6.45;;;;;;;;;;5065077;28;20040;-75
2022/12/20 02:11:22;;;;;;;9.02;6.55;;;;;;;;;;5064947;28;20051;-75
2022/12/20 02:14:00;;;;;;;7.97;6.68;;;;;;;;;;5064093;28;20127;-76
2022/12/20 02:16:29;;;;;;;11.10;7.50;;;;;;;;;;5064900;28;20057;-75
2022/12/20 02:19:01;;;;;;;10.32;7.53;;;;;;;;;;5063597;28;20373;-75
2022/12/20 02:21:30;;;;;;;10.13;7.57;;;;;;;;;;5064241;28;20048;-75
2022/12/20 02:23:56;;;;;;;9.95;7.65;;;;;;;;;;5069375;28;20097;-75
2022/12/20 02:26:50;;;;;;;9.18;7.00;;;;;;;;;;5066505;28;20123;-75
2022/12/20 02:29:16;;;;;;;12.32;6.97;;;;;;;;;;5065070;28;20053;-75
2022/12/20 02:31:45;;;;;;;10.48;6.90;;;;;;;;;;5066614;28;20055;-75
2022/12/20 02:34:12;;;;;;;9.18;6.63;;;;;;;;;;5064164;28;20044;-75
2022/12/20 02:36:38;;;;;;;9.93;7.50;;;;;;;;;;5061937;28;20052;-75
2022/12/20 02:39:04;;;;;;;11.10;7.60;;;;;;;;;;5065176;28;20556;-75
2022/12/20 02:41:35;;;;;;;10.30;7.15;;;;;;;;;;5066753;28;20480;-75
2022/12/20 02:46:49;;;;;;;10.13;7.10;;;;;;;;;;5071023;28;20040;-75
2022/12/20 02:49:17;;;;;;;7.88;6.32;;;;;;;;;;5065426;28;20052;-75
2022/12/20 02:51:45;;;;;;;9.27;6.53;;;;;;;;;;5059140;28;20047;-75
2022/12/20 02:54:11;;;;;;;10.23;6.88;;;;;;;;;;5066158;28;20049;-75
2022/12/20 02:56:52;;;;;;;11.85;7.25;;;;;;;;;;5065662;28;20503;-75
2022/12/20 02:59:21;;;;;;;8.40;6.65;;;;;;;;;;5066108;28;20050;-75
2022/12/20 03:01:49;;;;;;;9.93;7.05;;;;;;;;;;5067193;28;20057;-75
2022/12/20 03:04:16;;;;;;;10.07;7.25;;;;;;;;;;5068051;28;20040;-75
2022/12/20 03:07:00;;;;;;;6.88;5.70;;;;;;;;;;5068185;28;20033;-75
2022/12/20 03:09:27;;;;;;;9.73;7.15;;;;;;;;;;5064162;28;20048;-75
2022/12/20 03:12:02;;;;;;;9.27;6.70;;;;;;;;;;5063868;28;20037;-75
2022/12/20 03:14:28;;;;;;;10.18;6.85;;;;;;;;;;5065572;28;20061;-75
2022/12/20 03:16:54;;;;;;;9.10;6.75;;;;;;;;;;5065984;28;20480;-75
2022/12/20 03:19:20;;;;;;;11.00;6.90;;;;;;;;;;5069569;28;20059;-75
2022/12/20 03:21:46;;;;;;;9.15;7.13;;;;;;;;;;5066787;28;20044;-75
2022/12/20 03:24:13;;;;;;;9.10;6.57;;;;;;;;;;5065227;28;20129;-75
2022/12/20 03:26:39;;;;;;;9.27;7.18;;;;;;;;;;5059648;28;20313;-75
2022/12/20 03:29:06;;;;;;;9.65;6.57;;;;;;;;;;5067944;28;20451;-75
2022/12/20 03:31:32;;;;;;;8.95;5.85;;;;;;;;;;5062099;28;20499;-75
2022/12/20 03:33:58;;;;;;;9.70;6.43;;;;;;;;;;5064546;28;20041;-75
2022/12/20 03:36:24;;;;;;;8.10;6.20;;;;;;;;;;5071487;28;20127;-75
2022/12/20 03:38:51;;;;;;;6.95;5.40;;;;;;;;;;5067378;28;20041;-75
2022/12/20 03:41:17;;;;;;;9.25;6.40;;;;;;;;;;5062103;28;20045;-75
2022/12/20 03:43:43;;;;;;;9.65;6.35;;;;;;;;;;5066864;28;20041;-75
2022/12/20 03:46:09;;;;;;;9.50;6.43;;;;;;;;;;5060515;28;20529;-75
2022/12/20 03:48:35;;;;;;;10.23;6.75;;;;;;;;;;5066948;28;20282;-75
2022/12/20 03:51:01;;;;;;;10.70;6.82;;;;;;;;;;5065291;28;20049;-75
2022/12/20 03:53:27;;;;;;;8.98;5.80;;;;;;;;;;5068258;28;20098;-75
2022/12/20 03:55:53;;;;;;;8.90;6.30;;;;;;;;;;5064295;28;20045;-75
2022/12/20 03:58:19;;;;;;;8.45;6.15;;;;;;;;;;5065994;28;20044;-75
2022/12/20 04:00:51;;;;;;;10.07;6.75;;;;;;;;;;5065091;28;20036;-75
2022/12/20 04:03:17;;;;;;;7.20;6.00;;;;;;;;;;5066272;28;20098;-76
2022/12/20 04:05:43;;;;;;;9.10;6.28;;;;;;;;;;5054962;28;20041;-75
2022/12/20 04:08:09;;;;;;;7.85;5.32;;;;;;;;;;5065637;28;20089;-75
2022/12/20 04:11:14;;;;;;;12.15;6.82;;;;;;;;;;5061542;28;20037;-75
2022/12/20 04:13:21;;;;;;;8.93;5.75;;;;;;;;;;5064421;28;20132;-75
2022/12/20 04:15:47;;;;;;;8.80;6.35;;;;;;;;;;5062612;28;20048;-75
2022/12/20 04:18:14;;;;;;;7.78;6.00;;;;;;;;;;5066252;28;20396;-75
2022/12/20 04:20:40;;;;;;;7.88;6.25;;;;;;;;;;5060362;28;20091;-75
2022/12/20 04:23:05;;;;;;;8.88;6.82;;;;;;;;;;5060710;28;20472;-75
2022/12/20 04:25:31;;;;;;;9.20;6.93;;;;;;;;;;5069667;28;20048;-75
2022/12/20 04:27:57;;;;;;;7.55;6.40;;;;;;;;;;5065317;28;20102;-75
2022/12/20 04:30:24;;;;;;;10.75;6.25;;;;;;;;;;5081347;28;21002;-75
2022/12/20 04:32:53;;;;;;;9.43;6.05;;;;;;;;;;5068186;28;20052;-75
2022/12/20 04:35:19;;;;;;;9.73;5.90;;;;;;;;;;5068593;28;20060;-75
2022/12/20 04:37:46;;;;;;;7.53;5.93;;;;;;;;;;5068138;28;20086;-75
2022/12/20 04:40:15;;;;;;;9.90;5.18;;;;;;;;;;5064033;28;20421;-75
2022/12/20 04:42:42;;;;;;;7.40;5.40;;;;;;;;;;5063411;28;20404;-75
2022/12/20 04:45:08;;;;;;;7.15;5.63;;;;;;;;;;5067952;28;20550;-75
2022/12/20 04:47:34;;;;;;;6.20;4.88;;;;;;;;;;5065952;28;20056;-75
2022/12/20 04:50:00;;;;;;;7.35;5.53;;;;;;;;;;5065830;28;20147;-75
2022/12/20 04:55:11;;;;;;;7.63;6.28;;;;;;;;;;5071627;28;20110;-75
2022/12/20 04:57:37;;;;;;;8.40;5.95;;;;;;;;;;5066433;28;20045;-75
2022/12/20 05:00:04;;;;;;;8.00;6.05;;;;;;;;;;5067173;28;20045;-75
2022/12/20 05:02:30;;;;;;;7.55;5.53;;;;;;;;;;5066180;28;20062;-75
2022/12/20 05:04:56;;;;;;;6.88;5.88;;;;;;;;;;5070125;28;20068;-75
2022/12/20 05:07:22;;;;;;;8.27;5.57;;;;;;;;;;5067140;28;20048;-75
2022/12/20 05:09:48;;;;;;;6.78;6.07;;;;;;;;;;5068281;28;20526;-75
2022/12/20 05:12:17;;;;;;;8.35;6.38;;;;;;;;;;5067215;28;20127;-75
2022/12/20 05:14:43;;;;;;;8.93;5.63;;;;;;;;;;5063027;28;20051;-75
2022/12/20 05:17:09;;;;;;;6.75;5.32;;;;;;;;;;5066374;28;20048;-75
2022/12/20 05:19:35;;;;;;;6.97;5.40;;;;;;;;;;5068055;28;20044;-75
2022/12/20 05:27:30;;;;;;;8.05;6.18;;;;;;;;;;5067197;28;20049;-75
2022/12/20 05:29:56;;;;;;;8.15;5.25;;;;;;;;;;5069908;28;20043;-75
2022/12/20 05:32:22;;;;;;;8.20;6.18;;;;;;;;;;5063533;28;20129;-75
2022/12/20 05:34:48;;;;;;;7.90;5.28;;;;;;;;;;5072948;28;20077;-74
2022/12/20 05:37:14;;;;;;;10.45;6.00;;;;;;;;;;5069988;28;20094;-75
2022/12/20 05:39:40;;;;;;;9.50;6.22;;;;;;;;;;5069123;28;20052;-75
2022/12/20 05:42:06;;;;;;;6.03;5.28;;;;;;;;;;5069357;28;20051;-75
2022/12/20 05:44:32;;;;;;;5.78;5.18;;;;;;;;;;5068372;28;20094;-75
2022/12/20 05:46:58;;;;;;;6.75;5.28;;;;;;;;;;5065601;28;20040;-75
2022/12/20 05:49:24;;;;;;;7.43;5.70;;;;;;;;;;5068296;28;20471;-75
2022/12/20 05:51:50;;;;;;;8.20;5.70;;;;;;;;;;5058656;28;20127;-75
2022/12/20 05:54:16;;;;;;;6.63;5.63;;;;;;;;;;5069792;28;20119;-75
2022/12/20 05:56:42;;;;;;;7.80;5.32;;;;;;;;;;5065555;28;20494;-75
2022/12/20 05:59:08;;;;;;;8.75;5.50;;;;;;;;;;5066881;28;20060;-75
2022/12/20 06:01:34;;;;;;;6.78;5.80;;;;;;;;;;5067806;28;20102;-75
2022/12/20 06:04:00;;;;;;;7.30;5.57;;;;;;;;;;5065683;28;20134;-75
2022/12/20 06:06:26;;;;;;;7.18;5.45;;;;;;;;;;5065592;28;20159;-75
2022/12/20 06:08:52;;;;;;;7.55;5.47;;;;;;;;;;5067365;28;20399;-75
2022/12/20 06:11:18;;;;;;;8.88;6.22;;;;;;;;;;5066776;28;20131;-75
2022/12/20 06:13:44;;;;;;;9.80;6.35;;;;;;;;;;5066456;28;20044;-75
2022/12/20 06:16:10;;;;;;;7.90;5.63;;;;;;;;;;5062143;28;20031;-75
2022/12/20 06:18:36;;;;;;;7.78;5.93;;;;;;;;;;5067791;28;20067;-75
2022/12/20 06:21:02;;;;;;;8.18;5.57;;;;;;;;;;5069703;28;20123;-75
2022/12/20 06:23:28;;;;;;;10.43;6.25;;;;;;;;;;5067645;28;20110;-75
2022/12/20 06:25:54;;;;;;;11.40;6.53;;;;;;;;;;5064358;28;20109;-75
2022/12/20 06:28:21;;;;;;;8.57;6.63;;;;;;;;;;5062058;28;20044;-75
2022/12/20 06:30:54;;;;;;;10.18;7.30;;;;;;;;;;5067420;28;20044;-75
2022/12/20 06:33:20;;;;;;;9.40;7.97;;;;;;;;;;5066554;28;20108;-75
2022/12/20 06:35:55;;;;;;;9.15;7.20;;;;;;;;;;5063957;28;20389;-75
2022/12/20 06:38:21;;;;;;;12.23;7.55;;;;;;;;;;5066637;28;20462;-75
2022/12/20 06:40:47;;;;;;;10.52;7.57;;;;;;;;;;5062892;28;20762;-75
2022/12/20 06:43:13;;;;;;;11.70;8.25;;;;;;;;;;5065215;28;20070;-75
2022/12/20 06:45:39;;;;;;;10.88;8.52;;;;;;;;;;5067379;28;20102;-75
2022/12/20 06:48:05;;;;;;;12.13;8.55;;;;;;;;;;5067374;28;20044;-75
2022/12/20 06:50:31;;;;;;;11.82;8.55;;;;;;;;;;5065723;28;20080;-75
2022/12/20 06:52:57;;;;;;;12.18;7.82;;;;;;;;;;5062620;28;20048;-75
2022/12/20 06:55:23;;;;;;;11.13;8.80;;;;;;;;;;5062141;28;20769;-75
2022/12/20 06:57:49;;;;;;;10.70;8.68;;;;;;;;;;5067827;28;20045;-75
2022/12/20 07:00:15;;;;;;;13.38;9.27;;;;;;;;;;5068317;28;20044;-75
2022/12/20 07:02:41;;;;;;;11.40;9.02;;;;;;;;;;5062652;28;20044;-75
2022/12/20 07:05:08;;;;;;;12.82;9.65;;;;;;;;;;5056346;28;20059;-75
2022/12/20 07:07:34;;;;;;;14.90;10.02;;;;;;;;;;5071614;28;20085;-75
2022/12/20 07:10:00;;;;;;;11.13;9.23;;;;;;;;;;5063228;28;20550;-76
2022/12/20 07:12:26;;;;;;;11.75;9.82;;;;;;;;;;5069976;28;20050;-76
2022/12/20 07:14:52;;;;;;;10.73;8.80;;;;;;;;;;5065639;28;20048;-76
2022/12/20 07:17:18;;;;;;;14.40;9.68;;;;;;;;;;5057130;28;20076;-75
2022/12/20 07:19:44;;;;;;;10.65;8.77;;;;;;;;;;5065079;28;20041;-75
2022/12/20 07:22:10;;;;;;;12.27;9.63;;;;;;;;;;5069237;28;20426;-76
2022/12/20 07:24:36;;;;;;;14.77;9.80;;;;;;;;;;5067150;28;20043;-76
2022/12/20 07:27:02;;;;;;;11.05;8.68;;;;;;;;;;5069325;28;20040;-75
2022/12/20 07:29:28;;;;;;;10.13;8.63;;;;;;;;;;5068247;28;20048;-75
2022/12/20 07:31:54;;;;;;;11.15;8.10;;;;;;;;;;5069711;28;20036;-76
2022/12/20 07:34:20;;;;;;;12.10;8.25;;;;;;;;;;5067977;28;20049;-76
2022/12/20 07:36:47;;;;;;;11.02;7.95;;;;;;;;;;5069345;28;20087;-76
2022/12/20 07:39:13;;;;;;;10.32;7.60;;;;;;;;;;5067895;28;20036;-76
2022/12/20 07:41:39;;;;;;;9.13;7.63;;;;;;;;;;5071774;28;20048;-76
2022/12/20 07:44:05;;;;;;;11.98;8.52;;;;;;;;;;5068948;28;20357;-76
2022/12/20 07:46:31;;;;;;;11.57;7.55;;;;;;;;;;5072045;28;20041;-76
2022/12/20 07:48:59;;;;;;;12.07;7.80;;;;;;;;;;5056364;28;20574;-76
2022/12/20 07:51:27;;;;;;;9.32;7.45;;;;;;;;;;5056922;28;20087;-75
2022/12/20 07:54:06;;;;;;;11.25;7.85;;;;;;;;;;5067094;28;20049;-75
2022/12/20 07:56:34;;;;;;;9.43;7.25;;;;;;;;;;5070042;28;20179;-76
2022/12/20 07:59:00;;;;;;;10.20;6.82;;;;;;;;;;5064149;28;20058;-76
2022/12/20 08:01:29;;;;;;;9.60;6.47;;;;;;;;;;5068483;28;20033;-76
2022/12/20 08:04:00;;;;;;;8.02;6.00;;;;;;;;;;5075194;28;20492;-75
2022/12/20 08:06:26;;;;;;;10.82;6.90;;;;;;;;;;5067877;28;20045;-76
2022/12/20 08:08:54;;;;;;;8.15;6.70;;;;;;;;;;5069489;28;20047;-75
2022/12/20 08:11:20;;;;;;;9.30;7.15;;;;;;;;;;5067817;28;20511;-75
2022/12/20 08:13:48;;;;;;;9.45;6.70;;;;;;;;;;5071873;28;20089;-75
2022/12/20 08:16:14;;;;;;;8.30;6.13;;;;;;;;;;5068554;28;20029;-76
2022/12/20 08:18:40;;;;;;;8.07;6.28;;;;;;;;;;5069803;28;20055;-75
2022/12/20 08:21:06;;;;;;;8.18;5.93;;;;;;;;;;5067872;28;20057;-76
2022/12/20 08:23:32;;;;;;;9.02;5.95;;;;;;;;;;5069781;28;20136;-75
2022/12/20 08:26:00;;;;;;;7.57;5.72;;;;;;;;;;5064283;28;20043;-75
2022/12/20 08:28:26;;;;;;;8.80;5.93;;;;;;;;;;5068007;28;20044;-75
2022/12/20 08:30:53;;;;;;;7.47;5.35;;;;;;;;;;5068669;28;20554;-75
2022/12/20 08:33:22;;;;;;;7.28;4.80;;;;;;;;;;5067376;28;20059;-75
2022/12/20 08:35:48;;;;;;;6.30;5.07;;;;;;;;;;5071796;28;20407;-74
2022/12/20 08:38:14;;;;;;;14.75;10.52;;;;;;;;;;5066692;28;20053;-75
2022/12/20 08:40:40;;;;;;;6.25;5.40;;;;;;;;;;5069821;28;20438;-75
2022/12/20 08:43:06;;;;;;;8.23;5.03;;;;;;;;;;5065558;28;20049;-75
2022/12/20 08:45:35;;;;;;;13.50;10.32;;;;;;;;;;5072159;28;20036;-75
2022/12/20 08:48:01;;;;;;;6.60;5.30;;;;;;;;;;5069443;28;20044;-75
2022/12/20 08:50:28;;;;;;;7.53;4.95;;;;;;;;;;5068224;28;20056;-75
2022/12/20 08:52:54;;;;;;;8.82;4.60;;;;;;;;;;5066333;28;20044;-75
2022/12/20 08:55:20;;;;;;;6.45;3.90;;;;;;;;;;5070761;28;20145;-75
2022/12/20 08:57:46;;;;;;;6.43;4.68;;;;;;;;;;5070531;28;20037;-75
2022/12/20 09:00:12;;;;;;;6.65;5.50;;;;;;;;;;5071752;28;20044;-76
2022/12/20 09:02:40;;;;;;;6.50;4.70;;;;;;;;;;5068519;28;20048;-76
2022/12/20 09:05:06;;;;;;;6.43;4.80;;;;;;;;;;5071505;28;20048;-76
2022/12/20 09:07:32;;;;;;;5.57;4.88;;;;;;;;;;5070117;28;20075;-75
2022/12/20 09:09:58;;;;;;;6.00;4.90;;;;;;;;;;5065333;28;20048;-75
2022/12/20 09:12:24;;;;;;;6.03;4.60;;;;;;;;;;5069653;28;20533;-75
2022/12/20 09:14:50;;;;;;;5.07;4.25;;;;;;;;;;5068605;28;20488;-75
2022/12/20 09:17:16;;;;;;;6.63;4.40;;;;;;;;;;5066930;28;20499;-75
2022/12/20 09:19:45;;;;;;;6.18;4.40;;;;;;;;;;5071250;28;20498;-75
2022/12/20 09:22:11;;;;;;;5.72;4.55;;;;;;;;;;5068540;28;20135;-75
2022/12/20 09:24:37;;;;;;;5.43;4.30;;;;;;;;;;5071263;28;20154;-75
2022/12/20 09:27:03;;;;;;;7.13;4.13;;;;;;;;;;5071544;28;20043;-75
2022/12/20 09:29:29;;;;;;;6.53;4.15;;;;;;;;;;5069556;28;20062;-75
2022/12/20 09:31:58;;;;;;;6.35;4.30;;;;;;;;;;5067165;28;20036;-75
2022/12/20 09:34:25;;;;;;;6.75;4.97;;;;;;;;;;5070046;28;20150;-75
2022/12/20 09:36:51;;;;;;;5.35;4.15;;;;;;;;;;5068230;28;20053;-75
2022/12/20 09:39:17;;;;;;;6.28;4.20;;;;;;;;;;5070029;28;20075;-75
2022/12/20 09:41:46;;;;;;;6.63;4.80;;;;;;;;;;5065208;28;20047;-75
2022/12/20 09:44:15;;;;;;;8.50;4.65;;;;;;;;;;5067894;28;20040;-75
2022/12/20 09:46:43;;;;;;;6.60;4.80;;;;;;;;;;5068773;28;20487;-75
2022/12/20 09:49:15;;;;;;;6.38;4.18;;;;;;;;;;5068469;28;20056;-75
2022/12/20 09:51:55;;;;;;;8.65;4.55;;;;;;;;;;5062257;28;20071;-75
2022/12/20 09:54:34;;;;;;;6.75;4.43;;;;;;;;;;5068437;28;20472;-75
2022/12/20 09:57:15;;;;;;;5.85;4.63;;;;;;;;;;5066320;28;20048;-75
2022/12/20 09:59:43;;;;;;;4.70;4.03;;;;;;;;;;5061572;28;20048;-76
2022/12/20 10:02:11;;;;;;;8.10;4.30;;;;;;;;;;5068650;28;20090;-76
2022/12/20 10:04:37;;;;;;;6.50;4.78;;;;;;;;;;5069662;28;20377;-76
2022/12/20 10:07:16;;;;;;;7.70;4.40;;;;;;;;;;5067582;28;20117;-75
2022/12/20 10:09:45;;;;;;;7.07;4.90;;;;;;;;;;5070394;28;20036;-75
2022/12/20 10:12:17;;;;;;;6.13;4.93;;;;;;;;;;5067951;28;20040;-75
2022/12/20 10:14:49;;;;;;;6.55;4.82;;;;;;;;;;5060008;28;20484;-75
2022/12/20 10:17:34;;;;;;;7.45;5.03;;;;;;;;;;5067189;28;20029;-76
2022/12/20 10:20:08;;;;;;;7.78;5.30;;;;;;;;;;5063727;28;20483;-75
2022/12/20 10:22:41;;;;;;;6.68;5.22;;;;;;;;;;5069428;28;20052;-75
2022/12/20 10:25:13;;;;;;;9.35;5.07;;;;;;;;;;5063911;28;20044;-75
2022/12/20 10:27:41;;;;;;;7.97;4.88;;;;;;;;;;5065638;28;20047;-75
2022/12/20 10:30:12;;;;;;;7.57;5.30;;;;;;;;;;5068685;28;20511;-75
2022/12/20 10:32:38;;;;;;;9.45;5.45;;;;;;;;;;5068634;28;20052;-75
2022/12/20 10:35:10;;;;;;;6.80;4.93;;;;;;;;;;5067565;28;20096;-74
2022/12/20 10:37:37;;;;;;;7.78;5.60;;;;;;;;;;5060956;28;20055;-74
2022/12/20 10:40:03;;;;;;;7.88;5.07;;;;;;;;;;5064837;28;20086;-75
2022/12/20 10:42:37;;;;;;;6.88;4.90;;;;;;;;;;5067978;28;20060;-75
2022/12/20 10:45:04;;;;;;;8.07;4.40;;;;;;;;;;5068008;28;20041;-74
2022/12/20 10:47:37;;;;;;;9.70;5.47;;;;;;;;;;5063456;28;20045;-74
2022/12/20 10:50:17;;;;;;;9.98;4.72;;;;;;;;;;5068562;28;20040;-74
2022/12/20 10:52:44;;;;;;;6.20;4.97;;;;;;;;;;5061552;28;20083;-75
2022/12/20 10:55:42;;;;;;;7.55;5.15;;;;;;;;;;5059196;28;20083;-75
2022/12/20 10:58:38;;;;;;;6.80;4.82;;;;;;;;;;5040303;28;20148;-75
2022/12/20 11:01:17;;;;;;;6.10;4.70;;;;;;;;;;5049902;28;20060;-75
2022/12/20 11:03:52;;;;;;;8.32;4.70;;;;;;;;;;5065591;28;20523;-75
2022/12/20 11:06:19;;;;;;;7.55;5.68;;;;;;;;;;5060308;28;20049;-75
2022/12/20 11:08:45;;;;;;;6.72;5.45;;;;;;;;;;5066820;28;20052;-75
2022/12/20 11:11:21;;;;;;;7.38;5.65;;;;;;;;;;5066872;28;20127;-75
2022/12/20 11:13:48;;;;;;;7.32;4.97;;;;;;;;;;5065377;28;20040;-74
2022/12/20 11:16:26;;;;;;;7.95;5.88;;;;;;;;;;5062254;28;20414;-75
2022/12/20 11:18:59;;;;;;;6.82;5.30;;;;;;;;;;5064064;28;20362;-74
2022/12/20 11:21:25;;;;;;;;;;;;;;;;;;5064668;28;20044;-74
2022/12/20 11:23:56;;;;;;;7.15;5.53;;;;;;;;;;5059925;28;19924;-75
2022/12/20 11:26:22;;;;;;;7.43;5.85;;;;;;;;;;5065628;28;20041;-75
2022/12/20 11:28:55;;;;;;;7.07;5.88;;;;;;;;;;5065591;28;20050;-75
2022/12/20 11:31:41;;;;;;;8.65;6.40;;;;;;;;;;5064498;28;20040;-75
2022/12/20 11:34:25;;;;;;;7.75;5.97;;;;;;;;;;5072048;28;20040;-75
2022/12/20 11:37:04;;;;;;;9.52;5.93;;;;;;;;;;5065997;28;20048;-75
2022/12/20 11:39:36;;;;;;;11.13;6.32;;;;;;;;;;5065808;28;20508;-74
2022/12/20 11:42:13;;;;;;;12.77;6.45;;;;;;;;;;5073238;28;20082;-74
2022/12/20 11:44:45;;;;;;;6.47;5.70;;;;;;;;;;5072468;28;20037;-74
2022/12/20 11:47:17;;;;;;;10.13;7.32;;;;;;;;;;5070763;28;20090;-73
2022/12/20 11:50:00;;;;;;;12.65;7.00;;;;;;;;;;5065193;28;20534;-74
2022/12/20 11:52:34;;;;;;;9.70;6.80;;;;;;;;;;5069613;28;20067;-74
2022/12/20 11:55:07;;;;;;;13.68;7.43;;;;;;;;;;5067732;28;20102;-74
2022/12/20 11:57:43;;;;;;;10.50;7.15;;;;;;;;;;5071811;28;20399;-75
2022/12/20 12:00:16;;;;;;;10.00;7.43;;;;;;;;;;5070337;28;20114;-74
2022/12/20 12:02:54;;;;;;;10.05;7.65;;;;;;;;;;5071039;28;20056;-74
2022/12/20 12:05:23;;;;;;;11.45;8.40;;;;;;;;;;5070460;28;20052;-74
2022/12/20 12:07:53;;;;;;;11.35;8.02;;;;;;;;;;5066833;28;20834;-74
2022/12/20 12:10:22;;;;;;;8.73;7.47;;;;;;;;;;5068078;28;20719;-74
2022/12/20 12:13:07;;;;;;;12.50;8.05;;;;;;;;;;5070116;28;20090;-74
2022/12/20 12:15:48;;;;;;;11.05;8.20;;;;;;;;;;5074582;28;20479;-74
2022/12/20 12:18:17;;;;;;;12.35;8.68;;;;;;;;;;5068351;28;20072;-74
2022/12/20 12:21:22;;;;;;;10.68;8.07;;;;;;;;;;5063974;28;20119;-74
2022/12/20 12:23:48;;;;;;;11.13;9.07;;;;;;;;;;5015198;28;20049;-74
2022/12/20 12:26:23;;;;;;;13.50;9.13;;;;;;;;;;5004328;28;20042;-74
2022/12/20 12:28:54;;;;;;;13.10;9.70;;;;;;;;;;5043288;28;20096;-74
2022/12/20 12:31:23;;;;;;;13.10;9.35;;;;;;;;;;5069048;28;20130;-74
2022/12/20 12:33:54;;;;;;;12.77;8.30;;;;;;;;;;5069906;28;20033;-74
2022/12/20 12:36:39;;;;;;;10.35;7.97;;;;;;;;;;5070221;28;20067;-74
2022/12/20 12:39:05;;;;;;;13.15;9.43;;;;;;;;;;5069987;28;20049;-74
2022/12/20 12:41:37;;;;;;;10.23;9.13;;;;;;;;;;5071248;28;20055;-74
2022/12/20 12:44:19;;;;;;;21.35;16.85;;;;;;;;;;5065769;28;20044;-74
2022/12/20 12:46:47;;;;;;;10.88;8.68;;;;;;;;;;5064227;28;20079;-74
2022/12/20 12:49:17;;;;;;;12.88;9.05;;;;;;;;;;5065312;28;20136;-74
2022/12/20 12:51:49;;;;;;;15.52;9.85;;;;;;;;;;5066044;28;20075;-74
2022/12/20 12:54:25;;;;;;;9.25;8.02;;;;;;;;;;5064351;28;20049;-74
2022/12/20 12:56:54;;;;;;;12.55;9.32;;;;;;;;;;5066434;28;20051;-74
2022/12/20 12:59:29;;;;;;;12.02;10.73;;;;;;;;;;5070256;28;20123;-74
2022/12/20 13:02:16;;;;;;;12.63;10.38;;;;;;;;;;5067954;28;20046;-75
2022/12/20 13:05:14;;;;;;;14.40;9.95;;;;;;;;;;5064856;28;20043;-74
2022/12/20 13:07:42;;;;;;;14.73;11.38;;;;;;;;;;5035704;28;20123;-74
2022/12/20 13:10:08;;;;;;;18.75;11.88;;;;;;;;;;5069247;28;20044;-74
2022/12/20 13:12:37;;;;;;;16.67;11.25;;;;;;;;;;5069844;28;20369;-74
2022/12/20 13:15:18;;;;;;;13.90;10.98;;;;;;;;;;5067838;28;20385;-74
2022/12/20 13:17:48;;;;;;;15.50;9.68;;;;;;;;;;5068770;28;20040;-74
2022/12/20 13:20:33;;;;;;;11.27;9.23;;;;;;;;;;5069423;28;20059;-74
2022/12/20 13:23:07;;;;;;;10.25;8.98;;;;;;;;;;5062542;28;20036;-74
2022/12/20 13:25:56;;;;;;;11.18;8.90;;;;;;;;;;5069053;28;20049;-74
2022/12/20 13:28:22;;;;;;;10.75;8.88;;;;;;;;;;5066491;28;20419;-74
2022/12/20 13:31:11;;;;;;;12.60;9.45;;;;;;;;;;5066926;28;20064;-74
2022/12/20 13:33:37;;;;;;;13.60;9.30;;;;;;;;;;5070486;28;20052;-74
2022/12/20 13:36:09;;;;;;;11.00;9.82;;;;;;;;;;5069467;28;20052;-74
2022/12/20 13:38:47;;;;;;;17.90;9.10;;;;;;;;;;5066168;28;20048;-74
2022/12/20 13:41:22;;;;;;;12.02;10.27;;;;;;;;;;5067392;28;20040;-74
2022/12/20 13:43:50;;;;;;;14.18;9.27;;;;;;;;;;5063222;28;20044;-74
2022/12/20 13:46:19;;;;;;;12.88;9.13;;;;;;;;;;5064700;28;20424;-74
2022/12/20 13:48:53;;;;;;;12.23;9.85;;;;;;;;;;5070078;28;20550;-75
2022/12/20 13:51:26;;;;;;;14.00;9.70;;;;;;;;;;5062046;28;20127;-74
2022/12/20 13:53:55;;;;;;;12.35;10.15;;;;;;;;;;5069107;28;20052;-75
2022/12/20 13:56:27;;;;;;;13.23;9.18;;;;;;;;;;5068720;28;20056;-74
2022/12/20 13:58:58;;;;;;;12.60;8.77;;;;;;;;;;5067378;28;20040;-74
2022/12/20 14:01:25;;;;;;;15.07;7.80;;;;;;;;;;5067977;28;20430;-74
2022/12/20 14:03:52;;;;;;;18.50;9.15;;;;;;;;;;5068594;28;20040;-75
2022/12/20 14:06:19;;;;;;;15.95;8.90;;;;;;;;;;5068289;28;20049;-75
2022/12/20 14:08:46;;;;;;;12.60;8.50;;;;;;;;;;5066766;28;20047;-75
2022/12/20 14:11:14;;;;;;;21.65;14.40;;;;;;;;;;5061046;28;20476;-75
2022/12/20 14:13:41;;;;;;;14.27;10.40;;;;;;;;;;5067178;28;20059;-74
2022/12/20 14:16:13;;;;;;;19.08;8.95;;;;;;;;;;5068516;28;20040;-74
2022/12/20 14:18:39;;;;;;;14.93;8.88;;;;;;;;;;5067206;28;20480;-74
2022/12/20 14:21:06;;;;;;;16.77;8.60;;;;;;;;;;5066819;28;20182;-74
2022/12/20 14:23:37;;;;;;;16.33;8.57;;;;;;;;;;5070202;28;20048;-74
2022/12/20 14:26:06;;;;;;;19.70;9.02;;;;;;;;;;5064232;28;20040;-74
2022/12/20 14:28:40;;;;;;;15.85;9.68;;;;;;;;;;5068340;28;20165;-74
2022/12/20 14:31:07;;;;;;;15.98;9.00;;;;;;;;;;5066671;28;20044;-74
2022/12/20 14:33:38;;;;;;;21.20;9.70;;;;;;;;;;5066666;28;20032;-74
2022/12/20 14:36:22;;;;;;;16.17;10.00;;;;;;;;;;5062647;28;20493;-74
2022/12/20 14:38:49;;;;;;;18.20;9.80;;;;;;;;;;5063988;28;20044;-74
2022/12/20 14:41:45;;;;;;;15.75;9.18;;;;;;;;;;5068518;28;20167;-74
2022/12/20 14:44:11;;;;;;;18.02;10.18;;;;;;;;;;5047616;28;20053;-74
2022/12/20 14:46:37;;;;;;;17.80;9.82;;;;;;;;;;5068244;28;20072;-74
2022/12/20 14:49:28;;;;;;;16.83;9.20;;;;;;;;;;5061616;28;20053;-74
2022/12/20 14:52:05;;;;;;;17.50;8.70;;;;;;;;;;5064101;28;20048;-74
2022/12/20 14:54:32;;;;;;;19.38;9.60;;;;;;;;;;5066698;28;20134;-74
2022/12/20 14:56:58;;;;;;;15.77;9.40;;;;;;;;;;5069526;28;20506;-74
2022/12/20 14:59:26;;;;;;;17.02;9.15;;;;;;;;;;5068102;28;20380;-74
2022/12/20 15:01:52;;;;;;;16.88;8.52;;;;;;;;;;5065701;28;20068;-74